createdAt,value
2023-04-13T00:02:46.147Z,23.90
2023-04-13T00:05:52.311Z,30.40
2023-04-13T00:08:54.208Z,31.20
2023-04-13T00:11:57.603Z,27.00
2023-04-13T00:14:59.285Z,32.40
2023-04-13T00:18:01.129Z,26.50
2023-04-13T00:21:02.940Z,28.60
2023-04-13T00:24:04.978Z,27.70
2023-04-13T00:27:08.110Z,29.60
2023-04-13T00:30:12.148Z,25.70
2023-04-13T00:33:13.943Z,23.90
2023-04-13T00:36:16.080Z,27.60
2023-04-13T00:39:22.415Z,23.50
2023-04-13T00:42:24.823Z,29.20
2023-04-13T00:45:27.639Z,24.00
2023-04-13T00:48:29.638Z,24.50
2023-04-13T00:51:32.489Z,24.70
2023-04-13T00:54:35.109Z,26.70
2023-04-13T00:57:40.024Z,23.20
2023-04-13T01:00:42.590Z,25.60
2023-04-13T01:03:44.293Z,24.30
2023-04-13T01:07:12.402Z,26.50
2023-04-13T01:10:21.202Z,25.00
2023-04-13T01:13:29.727Z,24.80
2023-04-13T01:16:50.544Z,23.20
2023-04-13T01:19:59.460Z,25.90
2023-04-13T01:23:30.645Z,23.60
2023-04-13T01:26:49.572Z,24.10
2023-04-13T01:29:51.604Z,27.00
2023-04-13T01:32:55.108Z,26.80
2023-04-13T01:36:02.394Z,26.50
2023-04-13T01:39:05.076Z,28.40
2023-04-13T01:42:07.782Z,26.90
2023-04-13T01:45:19.465Z,27.40
2023-04-13T01:48:33.671Z,29.00
2023-04-13T01:51:45.387Z,27.30
2023-04-13T01:54:51.240Z,30.00
2023-04-13T01:57:56.265Z,25.50
2023-04-13T02:00:58.150Z,30.50
2023-04-13T02:04:02.220Z,26.30
2023-04-13T02:07:06.010Z,26.00
2023-04-13T02:10:11.408Z,32.20
2023-04-13T02:16:15.179Z,31.10
2023-04-13T02:19:16.920Z,32.10
2023-04-13T02:22:18.578Z,33.70
2023-04-13T02:25:23.278Z,31.70
2023-04-13T02:28:27.118Z,34.70
2023-04-13T02:31:31.178Z,28.40
2023-04-13T02:34:33.424Z,28.20
2023-04-13T02:40:39.279Z,24.00
2023-04-13T02:43:41.426Z,26.30
2023-04-13T02:46:43.471Z,25.30
2023-04-13T02:49:49.087Z,25.50
2023-04-13T02:53:01.707Z,31.70
2023-04-13T02:56:05.051Z,26.50
2023-04-13T02:59:06.882Z,25.00
2023-04-13T03:02:09.288Z,28.00
2023-04-13T03:05:12.370Z,27.30
2023-04-13T03:08:14.260Z,26.00
2023-04-13T03:11:25.685Z,27.60
2023-04-13T03:14:41.619Z,29.10
2023-04-13T03:17:44.939Z,29.40
2023-04-13T03:20:49.888Z,26.30
2023-04-13T03:23:52.541Z,27.30
2023-04-13T03:26:57.379Z,29.10
2023-04-13T03:30:04.910Z,25.10
2023-04-13T03:33:12.096Z,27.10
2023-04-13T03:36:14.569Z,25.30
2023-04-13T03:39:16.516Z,31.20
2023-04-13T03:42:18.306Z,26.90
2023-04-13T03:45:25.998Z,28.70
2023-04-13T03:48:28.623Z,28.10
2023-04-13T03:51:31.148Z,31.50
2023-04-13T03:54:34.634Z,31.70
2023-04-13T04:00:40.690Z,27.50
2023-04-13T04:03:47.090Z,26.00
2023-04-13T04:09:51.397Z,29.40
2023-04-13T04:12:53.679Z,26.80
2023-04-13T04:18:58.210Z,25.40
2023-04-13T04:22:03.599Z,24.70
2023-04-13T04:25:08.233Z,27.20
2023-04-13T04:28:17.352Z,26.00
2023-04-13T04:31:21.003Z,27.50
2023-04-13T04:34:25.820Z,30.30
2023-04-13T04:37:27.517Z,28.50
2023-04-13T04:40:35.396Z,27.00
2023-04-13T04:43:38.544Z,27.30
2023-04-13T04:46:40.976Z,24.50
2023-04-13T04:49:45.364Z,25.30
2023-04-13T04:52:47.143Z,29.10
2023-04-13T04:55:52.762Z,30.40
2023-04-13T04:59:04.508Z,30.80
2023-04-13T05:02:12.539Z,29.40
2023-04-13T05:05:14.335Z,32.40
2023-04-13T05:08:16.130Z,33.30
2023-04-13T05:11:20.376Z,25.00
2023-04-13T05:14:22.316Z,27.10
2023-04-13T05:17:25.239Z,30.80
2023-04-13T05:20:27.981Z,28.90
2023-04-13T05:23:34.688Z,27.30
2023-04-13T05:26:42.634Z,29.00
2023-04-13T05:29:47.472Z,26.50
2023-04-13T05:32:51.157Z,30.50
2023-04-13T05:35:52.933Z,25.30
2023-04-13T05:38:58.499Z,27.90
2023-04-13T05:42:01.240Z,26.00
2023-04-13T05:45:09.019Z,25.50
2023-04-13T05:48:12.569Z,26.20
2023-04-13T05:51:17.533Z,23.80
2023-04-13T05:54:20.498Z,26.10
2023-04-13T05:57:23.576Z,27.70
2023-04-13T06:00:27.344Z,29.50
2023-04-13T06:03:34.187Z,21.50
2023-04-13T06:06:35.983Z,21.50
2023-04-13T06:09:37.807Z,25.80
2023-04-13T06:12:41.728Z,22.50
2023-04-13T06:15:43.454Z,31.20
2023-04-13T06:18:45.308Z,24.50
2023-04-13T06:21:47.009Z,23.00
2023-04-13T06:24:51.141Z,20.00
2023-04-13T06:27:53.798Z,25.60
2023-04-13T06:30:56.457Z,19.00
2023-04-13T06:33:58.332Z,20.90
2023-04-13T06:37:04.543Z,22.60
2023-04-13T06:40:14.321Z,22.10
2023-04-13T06:43:29.191Z,21.90
2023-04-13T06:46:57.464Z,23.90
2023-04-13T06:50:05.927Z,24.80
2023-04-13T06:53:07.880Z,26.00
2023-04-13T06:56:09.969Z,28.50
2023-04-13T06:59:12.231Z,23.90
2023-04-13T07:02:14.109Z,24.10
2023-04-13T07:05:16.611Z,23.40
2023-04-13T07:08:19.486Z,23.50
2023-04-13T07:11:24.112Z,24.50
2023-04-13T07:14:25.953Z,21.10
2023-04-13T07:17:28.096Z,24.50
2023-04-13T07:20:30.084Z,23.80
2023-04-13T07:23:33.425Z,24.30
2023-04-13T07:26:39.231Z,24.50
2023-04-13T07:29:41.227Z,26.40
2023-04-13T07:32:46.355Z,22.40
2023-04-13T07:38:51.900Z,23.00
2023-04-13T07:41:54.272Z,28.70
2023-04-13T07:45:01.874Z,21.80
2023-04-13T07:48:05.319Z,23.20
2023-04-13T07:51:16.953Z,22.30
2023-04-13T07:54:19.048Z,25.60
2023-04-13T07:57:22.038Z,24.50
2023-04-13T08:00:29.444Z,21.80
2023-04-13T08:03:33.098Z,25.00
2023-04-13T08:06:36.467Z,8.00
2023-04-13T08:09:40.175Z,11.50
2023-04-13T08:12:41.956Z,10.40
2023-04-13T08:15:45.227Z,10.80
2023-04-13T08:18:47.521Z,6.70
2023-04-13T08:21:50.645Z,9.10
2023-04-13T08:24:52.771Z,11.20
2023-04-13T08:27:55.712Z,7.60
2023-04-13T08:30:58.139Z,8.90
2023-04-13T08:34:00.194Z,7.30
2023-04-13T08:37:02.183Z,7.50
2023-04-13T08:40:07.182Z,9.40
2023-04-13T08:43:09.182Z,9.20
2023-04-13T08:46:18.875Z,8.20
2023-04-13T08:49:22.807Z,10.10
2023-04-13T08:52:48.545Z,8.50
2023-04-13T08:55:54.100Z,11.40
2023-04-13T08:59:08.573Z,13.20
2023-04-13T09:02:11.309Z,11.40
2023-04-13T09:05:23.261Z,10.20
2023-04-13T09:08:36.686Z,10.80
2023-04-13T09:11:41.593Z,8.30
2023-04-13T09:14:43.450Z,10.00
2023-04-13T09:17:45.677Z,9.90
2023-04-13T09:23:59.178Z,8.50
2023-04-13T09:27:02.068Z,10.10
2023-04-13T09:30:04.984Z,9.90
2023-04-13T09:33:09.781Z,11.30
2023-04-13T09:36:16.377Z,12.00
2023-04-13T09:39:26.998Z,9.30
2023-04-13T09:42:28.783Z,10.70
2023-04-13T09:45:35.861Z,9.40
2023-04-13T09:48:37.859Z,9.30
2023-04-13T09:51:41.395Z,9.40
2023-04-13T09:54:43.344Z,13.20
2023-04-13T09:57:45.239Z,10.20
2023-04-13T10:00:47.081Z,7.70
2023-04-13T10:03:49.566Z,9.00
2023-04-13T10:06:51.902Z,10.60
2023-04-13T10:13:04.506Z,10.30
2023-04-13T10:16:24.087Z,12.60
2023-04-13T10:19:59.161Z,9.50
2023-04-13T10:23:05.953Z,10.20
2023-04-13T10:26:09.005Z,11.30
2023-04-13T10:29:13.879Z,12.90
2023-04-13T10:32:26.916Z,11.80
2023-04-13T10:46:10.584Z,9.90
2023-04-13T10:49:12.813Z,10.50
2023-04-13T10:55:19.235Z,10.00
2023-04-13T10:58:22.415Z,9.40
2023-04-13T11:01:24.948Z,9.80
2023-04-13T11:04:26.843Z,9.10
2023-04-13T11:07:29.177Z,9.60
2023-04-13T11:10:31.811Z,12.50
2023-04-13T11:13:33.627Z,9.80
2023-04-13T11:16:45.464Z,10.10
2023-04-13T11:19:54.971Z,9.10
2023-04-13T11:22:57.191Z,8.90
2023-04-13T11:29:04.537Z,12.90
2023-04-13T11:35:10.144Z,9.50
2023-04-13T11:38:19.747Z,8.90
2023-04-13T11:41:21.609Z,14.00
2023-04-13T11:44:24.336Z,12.70
2023-04-13T11:47:26.662Z,9.30
2023-04-13T11:50:29.096Z,13.20
2023-04-13T11:53:32.963Z,10.30
2023-04-13T11:56:35.158Z,10.70
2023-04-13T12:02:59.568Z,11.50
2023-04-13T12:06:04.104Z,13.40
2023-04-13T12:09:14.975Z,12.90
2023-04-13T12:15:43.534Z,9.80
2023-04-13T12:18:52.489Z,8.60
2023-04-13T12:21:57.192Z,11.50
2023-04-13T12:24:59.728Z,9.40
2023-04-13T12:28:02.680Z,11.50
2023-04-13T12:31:12.093Z,10.60
2023-04-13T12:34:13.933Z,11.70
2023-04-13T12:37:15.770Z,11.40
2023-04-13T12:40:17.871Z,10.80
2023-04-13T12:43:19.671Z,12.70
2023-04-13T12:46:21.579Z,12.60
2023-04-13T12:49:23.466Z,11.40
2023-04-13T12:52:27.942Z,8.80
2023-04-13T12:55:30.087Z,8.90
2023-04-13T13:01:36.769Z,10.80
2023-04-13T13:04:38.625Z,7.80
2023-04-13T13:07:40.407Z,9.90
2023-04-13T13:10:42.200Z,11.10
2023-04-13T13:13:43.966Z,12.50
2023-04-13T13:16:46.130Z,9.10
2023-04-13T13:22:49.668Z,10.50
2023-04-13T13:26:04.387Z,10.40
2023-04-13T13:29:13.279Z,25.00
2023-04-13T13:32:16.282Z,15.10
2023-04-13T13:35:19.192Z,11.50
2023-04-13T13:38:21.024Z,12.30
2023-04-13T13:41:24.794Z,14.40
2023-04-13T13:44:26.632Z,12.30
2023-04-13T13:47:28.675Z,13.00
2023-04-13T13:50:30.666Z,11.70
2023-04-13T13:53:34.189Z,13.00
2023-04-13T13:56:36.020Z,14.20
2023-04-13T13:59:38.028Z,16.10
2023-04-13T14:02:40.262Z,14.80
2023-04-13T14:08:52.035Z,12.30
2023-04-13T14:11:54.163Z,14.10
2023-04-13T14:14:55.975Z,15.70
2023-04-13T14:21:56.210Z,13.50
2023-04-13T14:28:00.520Z,15.10
2023-04-13T14:31:02.926Z,11.90
2023-04-13T14:34:04.725Z,13.60
2023-04-13T14:37:06.995Z,13.30
2023-04-13T14:40:13.852Z,15.00
2023-04-13T14:43:16.129Z,16.10
2023-04-13T14:49:19.982Z,13.40
2023-04-13T14:52:22.129Z,11.90
2023-04-13T14:55:24.032Z,13.70
2023-04-13T14:58:25.986Z,11.30
2023-04-13T15:01:27.875Z,11.10
2023-04-13T15:04:30.177Z,10.30
2023-04-13T15:07:32.114Z,11.80
2023-04-13T15:10:34.525Z,13.00
2023-04-13T15:13:37.564Z,13.10
2023-04-13T15:16:39.373Z,16.30
2023-04-13T15:19:41.436Z,13.30
2023-04-13T15:22:43.434Z,12.60
2023-04-13T15:25:45.989Z,13.10
2023-04-13T15:28:47.964Z,13.60
2023-04-13T15:31:51.121Z,15.60
2023-04-13T15:34:55.745Z,15.70
2023-04-13T15:38:01.462Z,13.50
2023-04-13T15:41:03.151Z,16.30
2023-04-13T15:44:05.032Z,17.20
2023-04-13T15:47:06.865Z,15.40
2023-04-13T15:50:09.039Z,15.00
2023-04-13T15:53:10.710Z,15.00
2023-04-13T15:56:12.530Z,13.80
2023-04-13T15:59:14.280Z,13.60
2023-04-13T16:02:16.152Z,14.00
2023-04-13T16:05:19.053Z,15.90
2023-04-13T16:08:21.033Z,16.70
2023-04-13T16:11:22.667Z,16.40
2023-04-13T16:14:24.705Z,13.80
2023-04-13T16:17:30.416Z,15.80
2023-04-13T16:20:33.046Z,16.10
2023-04-13T16:23:35.032Z,16.10
2023-04-13T16:26:37.293Z,16.90
2023-04-13T16:32:44.417Z,17.50
2023-04-13T16:35:46.151Z,17.80
2023-04-13T16:38:47.859Z,17.50
2023-04-13T16:41:50.785Z,17.10
2023-04-13T16:44:52.797Z,15.70
2023-04-13T16:47:55.139Z,19.20
2023-04-13T16:53:59.625Z,17.20
2023-04-13T16:57:01.460Z,18.90
2023-04-13T17:00:08.881Z,18.50
2023-04-13T17:03:10.878Z,19.40
2023-04-13T17:06:12.815Z,20.70
2023-04-13T17:09:14.486Z,21.20
2023-04-13T17:12:16.214Z,19.90
2023-04-13T17:15:19.039Z,18.00
2023-04-13T17:18:20.933Z,19.30
2023-04-13T17:21:22.884Z,20.70
2023-04-13T17:24:24.797Z,19.90
2023-04-13T17:27:26.538Z,19.90
2023-04-13T17:30:31.680Z,19.80
2023-04-13T17:33:33.384Z,20.20
2023-04-13T17:36:35.025Z,19.60
2023-04-13T17:39:36.953Z,23.80
2023-04-13T17:42:38.724Z,19.40
2023-04-13T17:45:41.028Z,22.20
2023-04-13T17:48:42.802Z,22.90
2023-04-13T17:51:46.917Z,22.90
2023-04-13T17:54:48.669Z,22.50
2023-04-13T17:57:50.394Z,26.50
2023-04-13T18:00:52.164Z,26.40
2023-04-13T18:03:54.095Z,28.90
2023-04-13T18:06:56.163Z,28.90
2023-04-13T18:09:57.992Z,29.30
2023-04-13T18:13:00.383Z,36.40
2023-04-13T18:16:02.680Z,29.20
2023-04-13T18:19:04.528Z,26.10
2023-04-13T18:22:06.301Z,23.50
2023-04-13T18:25:09.031Z,24.60
2023-04-13T18:28:11.035Z,22.40
2023-04-13T18:31:12.834Z,24.20
2023-04-13T18:34:14.613Z,23.00
2023-04-13T18:37:16.350Z,22.20
2023-04-13T18:40:18.058Z,23.30
2023-04-13T18:43:19.890Z,30.20
2023-04-13T18:46:21.702Z,28.20
2023-04-13T18:49:23.505Z,27.00
2023-04-13T18:52:25.570Z,25.30
2023-04-13T18:55:28.042Z,23.70
2023-04-13T18:58:29.802Z,22.30
2023-04-13T19:01:31.832Z,24.20
2023-04-13T19:04:34.538Z,26.00
2023-04-13T19:07:36.439Z,28.40
2023-04-13T19:10:38.472Z,23.20
2023-04-13T19:13:40.158Z,21.60
2023-04-13T19:16:44.877Z,22.50
2023-04-13T19:19:48.026Z,25.70
2023-04-13T19:22:52.712Z,25.90
2023-04-13T19:25:54.517Z,26.10
2023-04-13T19:28:56.248Z,23.90
2023-04-13T19:31:58.460Z,24.30
2023-04-13T19:38:01.971Z,25.70
2023-04-13T19:41:03.684Z,27.10
2023-04-13T19:44:07.220Z,27.80
2023-04-13T19:47:08.923Z,19.90
2023-04-13T19:50:13.700Z,20.70
2023-04-13T19:53:15.524Z,17.50
2023-04-13T19:56:17.764Z,19.70
2023-04-13T19:59:19.480Z,22.00
2023-04-13T20:02:21.533Z,20.10
2023-04-13T20:05:24.189Z,17.60
2023-04-13T20:08:26.040Z,16.30
2023-04-13T20:11:27.705Z,16.10
2023-04-13T20:14:29.627Z,15.90
2023-04-13T20:17:31.439Z,16.10
2023-04-13T20:20:34.870Z,18.70
2023-04-13T20:23:37.015Z,18.90
2023-04-13T20:26:39.152Z,16.10
2023-04-13T20:29:41.100Z,15.40
2023-04-13T20:32:42.853Z,14.80
2023-04-13T20:35:44.705Z,19.00
2023-04-13T20:38:47.621Z,18.80
2023-04-13T20:41:54.158Z,21.00
2023-04-13T20:44:58.897Z,23.60
2023-04-13T20:51:23.171Z,19.40
2023-04-13T20:54:24.812Z,21.40
2023-04-13T20:57:26.933Z,22.40
2023-04-13T21:03:31.262Z,22.90
2023-04-13T21:06:35.420Z,22.20
2023-04-13T21:09:37.596Z,21.80
2023-04-13T21:15:44.747Z,18.40
2023-04-13T21:18:47.217Z,15.00
2023-04-13T21:21:48.923Z,14.90
2023-04-13T21:24:50.661Z,16.20
2023-04-13T21:27:52.376Z,14.90
2023-04-13T21:30:54.202Z,14.60
2023-04-13T21:33:55.950Z,9.90
2023-04-13T21:36:59.849Z,14.90
2023-04-13T21:40:01.845Z,12.80
2023-04-13T21:43:03.724Z,15.00
2023-04-13T21:46:05.470Z,15.40
2023-04-13T21:49:07.229Z,14.80
2023-04-13T21:52:09.409Z,12.10
2023-04-13T21:58:19.047Z,10.20
2023-04-13T22:01:20.844Z,9.80
2023-04-13T22:04:22.856Z,10.90
2023-04-13T22:07:38.999Z,11.40
2023-04-13T22:10:43.766Z,10.90
2023-04-13T22:13:45.550Z,12.80
2023-04-13T22:16:48.739Z,18.20
2023-04-13T22:19:50.624Z,15.60
2023-04-13T22:22:52.310Z,13.20
2023-04-13T22:26:00.838Z,13.30
2023-04-13T22:29:02.810Z,14.30
2023-04-13T22:32:05.032Z,13.70
2023-04-13T22:35:07.114Z,14.20
2023-04-13T22:38:08.863Z,12.10
2023-04-13T22:41:10.642Z,13.90
2023-04-13T22:44:12.445Z,15.20
2023-04-13T22:47:14.196Z,14.70
2023-04-13T22:50:16.102Z,11.60
2023-04-13T22:53:17.780Z,11.40
2023-04-13T22:56:19.467Z,10.70
2023-04-13T22:59:21.234Z,12.20
2023-04-13T23:02:23.046Z,10.50
2023-04-13T23:05:24.834Z,10.80
2023-04-13T23:08:28.635Z,11.30
2023-04-13T23:11:30.467Z,10.40
2023-04-13T23:14:32.313Z,12.30
2023-04-13T23:17:34.250Z,11.40
2023-04-13T23:20:36.069Z,13.90
2023-04-13T23:23:38.729Z,16.20
2023-04-13T23:26:40.458Z,15.60
2023-04-13T23:29:44.910Z,15.90
2023-04-13T23:32:46.699Z,15.50
2023-04-13T23:35:51.856Z,17.20
2023-04-13T23:38:53.725Z,16.80
2023-04-13T23:41:55.508Z,17.50
2023-04-13T23:44:57.210Z,20.40
2023-04-13T23:47:58.947Z,18.10
2023-04-13T23:51:00.793Z,17.40
2023-04-13T23:54:02.563Z,17.60
2023-04-13T23:57:04.258Z,19.20
